Аэропорт
Ханты-Мансийск (USHH)

 USHH / HMA
ЗЦ Екатеринбург
Тюмень (USTV)
Тюмень (USTV)
 61.02850, 69.08610  / 76 ft

 USHH 250430Z 11005MPS 9999 -SN BKN011 M04/M06 Q1008 R06/450345 TEMPO 1000 SN BKN003
 TAF USHH 250148Z 2503/2603 11006G14MPS 6000 -SN BKN011 OVC016 TEMPO 2503/2518 1000 SHSN BLSN BKN003 OVC007CB
USHH_j_0220
показать схемы
Название сценария Тип сценария Flight Simulator 9 Flight Simulator X Prepar3D v2 Prepar3D v3 Prepar3D v4 Prepar3D v5 xPlane
Khanty-Mansiysk USHH (P3Dv4.4+) бесплатный
Ханты-Мансийск USHH XP Aleksei Nelaev автор бесплатный


2020 © VATRUS division (Privacy Policy)